Leroy, Pennsylvania
Current Conditions -  °F | °C
As of 11:54 PM on Friday 24 Oct 2014 (Local Time) from KIPT Reporting Station
Clear Clear  
Wind Chill: 50°   Ceiling: Unl
Heat Index: 50°   Visibility: 10mi
Dew Point: 34°   Wind: 9mph
Humidity: 54%   Direction: 280°W
Pressure: 29.93"   Gusts: NA
Location:  41.68°N, 76.71°W
Report Text: KIPT 250354Z AUTO 28008KT 10SM CLR 10/01 A2993 RMK AO2 SLP136 T01000011
Loading
Personal Weather Stations






























Interactive Weather Map
Tropical Storm Tracking
New forecast layout! Learn more

10-Day Weather Forecast

Advertisements
Track Severe Weather on mobile